LiveATC.Net - Listen to live air traffic control over the Internet! Contact LiveATC.net for advertising information


ICAO: SBTE  IATA: THE   Airport: Teresina-Senador Petronio Portella Airport
City: Teresina
Country: Brazil   Continent: South America
SBTE METAR Weather: SBTE 241200Z 08003KT 9999 SCT030 30/26 Q1013
SBTE Flight Activity (FlightAware)
SBTE Twr/App
Feed Status: DOWN
Last heard on: 2013-12-20 04:04:03 (125 days 8 hours 51 minutes ago)
SBTE Twr/App Audio Archives
FacilityFrequency
Teresina Approach119.600
Teresina Tower118.800


NOTICE

Unauthorized use prohibited. See LiveATC.net Terms of Service


Find LiveATC Audio Streams


Airport/ARTCC Code

Frequency
(e.g., 124.400, 128.75)
Site-wide search

Browse LiveATC Feeds
LiveATC Coverage Map
Top 50 LiveATC Feeds
Bad Weather Areas

LiveATC FAQ
Offer a LiveATC Feed
Contact LiveATC.net
Press Inquiries

LiveATC on iPhone
LiveATC on Android

LiveATC Mobile
(Mobile browser)

ATC Audio Archives
Interesting Recordings

LiveATC Forums


Home Page
About LiveATC.net
Make a Donation
LiveATC Bookstore

Terms of Use
Privacy Policy

ATC/Radar Sites
U.S. ARTCC Freqs
Canadian Air Freqs

AIRMETs/SIGMETs

FAA Airport Status
Nat'l Airspace Status
Arrival Demand Charts


Server Software By:
Icecast.org
Liquidsoap

Please make a donation to help us keep growing!